createdAt,value
2022-10-09T00:01:25.106Z,16.23
2022-10-09T00:03:53.718Z,16.85
2022-10-09T00:06:23.463Z,15.60
2022-10-09T00:08:50.934Z,15.38
2022-10-09T00:11:23.418Z,16.77
2022-10-09T00:13:51.466Z,16.20
2022-10-09T00:16:19.417Z,16.13
2022-10-09T00:18:47.164Z,16.05
2022-10-09T00:21:29.177Z,15.63
2022-10-09T00:23:59.053Z,15.88
2022-10-09T00:26:26.637Z,16.40
2022-10-09T00:28:53.616Z,15.20
2022-10-09T00:31:21.060Z,15.85
2022-10-09T00:33:48.232Z,16.73
2022-10-09T00:36:17.901Z,15.35
2022-10-09T00:38:44.951Z,15.20
2022-10-09T00:41:17.832Z,16.15
2022-10-09T00:43:50.514Z,14.85
2022-10-09T00:46:27.592Z,15.88
2022-10-09T00:49:09.656Z,16.25
2022-10-09T00:51:37.251Z,15.23
2022-10-09T00:54:05.999Z,15.15
2022-10-09T00:56:34.454Z,15.98
2022-10-09T00:59:01.908Z,15.07
2022-10-09T01:01:28.752Z,14.98
2022-10-09T01:03:55.689Z,16.40
2022-10-09T01:06:31.446Z,16.00
2022-10-09T01:09:03.892Z,16.23
2022-10-09T01:11:49.487Z,15.70
2022-10-09T01:14:16.258Z,17.08
2022-10-09T01:16:50.766Z,16.17
2022-10-09T01:19:50.561Z,15.63
2022-10-09T01:22:39.206Z,15.25
2022-10-09T01:25:21.226Z,15.55
2022-10-09T01:27:48.515Z,15.65
2022-10-09T01:30:15.309Z,16.30
2022-10-09T01:32:48.965Z,15.43
2022-10-09T01:35:17.843Z,16.20
2022-10-09T01:37:46.101Z,15.93
2022-10-09T01:40:15.156Z,16.38
2022-10-09T01:42:42.280Z,15.73
2022-10-09T01:45:09.814Z,15.90
2022-10-09T01:47:37.166Z,14.57
2022-10-09T01:50:12.917Z,15.80
2022-10-09T01:53:16.275Z,14.70
2022-10-09T01:55:49.077Z,14.00
2022-10-09T01:58:27.688Z,15.23
2022-10-09T02:01:18.988Z,14.52
2022-10-09T02:03:49.235Z,15.25
2022-10-09T02:06:18.894Z,14.75
2022-10-09T02:08:48.433Z,15.20
2022-10-09T02:11:15.727Z,16.05
2022-10-09T02:13:44.243Z,14.27
2022-10-09T02:16:28.272Z,14.50
2022-10-09T02:19:07.351Z,13.88
2022-10-09T02:21:46.157Z,13.20
2022-10-09T02:24:19.311Z,13.63
2022-10-09T02:26:46.383Z,13.75
2022-10-09T02:29:14.465Z,14.85
2022-10-09T02:31:43.335Z,14.32
2022-10-09T02:34:12.759Z,14.52
2022-10-09T02:36:40.517Z,13.57
2022-10-09T02:39:08.057Z,14.02
2022-10-09T02:41:35.618Z,12.82
2022-10-09T02:44:03.661Z,13.27
2022-10-09T02:46:30.790Z,12.98
2022-10-09T02:48:57.898Z,13.68
2022-10-09T02:51:25.227Z,13.48
2022-10-09T02:53:53.839Z,14.00
2022-10-09T02:56:22.195Z,13.38
2022-10-09T02:58:49.105Z,12.30
2022-10-09T03:01:16.519Z,11.85
2022-10-09T03:03:43.486Z,11.23
2022-10-09T03:06:15.837Z,10.43
2022-10-09T03:08:45.433Z,9.75
2022-10-09T03:11:14.151Z,10.60
2022-10-09T03:13:41.192Z,10.20
2022-10-09T03:16:13.366Z,10.13
2022-10-09T03:18:40.905Z,9.00
2022-10-09T03:21:08.784Z,9.13
2022-10-09T03:23:36.189Z,9.23
2022-10-09T03:26:05.739Z,8.63
2022-10-09T03:28:32.587Z,8.32
2022-10-09T03:30:59.723Z,8.32
2022-10-09T03:33:26.554Z,8.05
2022-10-09T03:35:53.433Z,8.35
2022-10-09T03:38:20.599Z,8.48
2022-10-09T03:40:47.395Z,8.45
2022-10-09T03:43:14.251Z,8.80
2022-10-09T03:45:42.676Z,8.27
2022-10-09T03:48:10.629Z,8.05
2022-10-09T03:50:38.538Z,8.02
2022-10-09T03:53:06.817Z,8.77
2022-10-09T03:55:34.032Z,8.30
2022-10-09T03:58:00.856Z,8.73
2022-10-09T04:00:28.328Z,9.13
2022-10-09T04:02:55.179Z,8.75
2022-10-09T04:05:22.079Z,9.60
2022-10-09T04:07:49.211Z,9.30
2022-10-09T04:10:16.206Z,8.45
2022-10-09T04:12:43.046Z,8.40
2022-10-09T04:15:10.658Z,9.00
2022-10-09T04:17:37.760Z,7.68
2022-10-09T04:20:04.719Z,8.32
2022-10-09T04:22:31.885Z,7.22
2022-10-09T04:24:58.677Z,7.80
2022-10-09T04:27:25.488Z,7.55
2022-10-09T04:29:52.560Z,8.32
2022-10-09T04:32:19.325Z,8.23
2022-10-09T04:34:46.111Z,6.97
2022-10-09T04:37:13.147Z,6.72
2022-10-09T04:39:40.394Z,6.25
2022-10-09T04:42:07.446Z,6.57
2022-10-09T04:44:34.430Z,6.85
2022-10-09T04:47:01.224Z,6.38
2022-10-09T04:49:28.019Z,6.55
2022-10-09T04:51:55.077Z,6.80
2022-10-09T04:54:22.435Z,6.53
2022-10-09T04:56:49.235Z,6.10
2022-10-09T04:59:16.335Z,6.28
2022-10-09T05:01:43.212Z,6.63
2022-10-09T05:04:10.073Z,6.15
2022-10-09T05:06:37.169Z,5.93
2022-10-09T05:09:04.270Z,5.15
2022-10-09T05:11:31.111Z,5.70
2022-10-09T05:13:58.612Z,4.88
2022-10-09T05:16:27.966Z,4.90
2022-10-09T05:18:56.726Z,4.68
2022-10-09T05:21:25.578Z,5.13
2022-10-09T05:23:54.560Z,4.80
2022-10-09T05:26:23.138Z,4.95
2022-10-09T05:28:50.723Z,4.72
2022-10-09T05:31:28.812Z,5.35
2022-10-09T05:33:59.102Z,5.22
2022-10-09T05:36:25.972Z,5.10
2022-10-09T05:38:52.867Z,5.72
2022-10-09T05:41:20.190Z,5.45
2022-10-09T05:43:48.520Z,5.55
2022-10-09T05:46:21.274Z,5.43
2022-10-09T05:48:53.676Z,6.05
2022-10-09T05:51:28.554Z,4.82
2022-10-09T05:53:56.899Z,5.28
2022-10-09T05:56:32.569Z,4.93
2022-10-09T05:59:03.762Z,5.60
2022-10-09T06:01:33.274Z,5.53
2022-10-09T06:04:00.757Z,5.30
2022-10-09T06:06:30.227Z,5.57
2022-10-09T06:08:58.532Z,5.85
2022-10-09T06:11:28.764Z,5.57
2022-10-09T06:13:56.549Z,5.28
2022-10-09T06:16:26.478Z,5.63
2022-10-09T06:18:54.479Z,5.43
2022-10-09T06:21:22.079Z,5.90
2022-10-09T06:23:53.847Z,4.95
2022-10-09T06:26:21.550Z,4.88
2022-10-09T06:28:49.095Z,4.38
2022-10-09T06:31:21.500Z,3.88
2022-10-09T06:33:49.549Z,4.15
2022-10-09T06:36:22.037Z,3.25
2022-10-09T06:38:49.621Z,2.75
2022-10-09T06:41:18.844Z,3.08
2022-10-09T06:43:54.294Z,3.67
2022-10-09T06:46:24.572Z,2.70
2022-10-09T06:48:52.084Z,2.85
2022-10-09T06:51:20.680Z,2.95
2022-10-09T06:53:53.161Z,2.80
2022-10-09T06:56:21.574Z,3.08
2022-10-09T06:58:49.332Z,3.25
2022-10-09T07:01:18.907Z,3.90
2022-10-09T07:03:48.756Z,4.10
2022-10-09T07:06:18.573Z,3.97
2022-10-09T07:08:47.763Z,4.60
2022-10-09T07:11:22.799Z,4.05
2022-10-09T07:13:51.547Z,5.25
2022-10-09T07:16:23.953Z,5.15
2022-10-09T07:18:52.030Z,4.95
2022-10-09T07:21:19.668Z,4.15
2022-10-09T07:23:46.916Z,4.60
2022-10-09T07:26:18.355Z,4.05
2022-10-09T07:28:45.786Z,4.03
2022-10-09T07:31:13.285Z,4.05
2022-10-09T07:33:41.750Z,4.60
2022-10-09T07:36:09.681Z,4.55
2022-10-09T07:38:36.762Z,4.90
2022-10-09T07:41:06.470Z,4.97
2022-10-09T07:43:38.076Z,5.50
2022-10-09T07:46:06.774Z,5.85
2022-10-09T07:48:34.874Z,5.53
2022-10-09T07:51:17.750Z,5.13
2022-10-09T07:53:45.086Z,4.65
2022-10-09T07:56:16.255Z,4.75
2022-10-09T07:58:43.447Z,5.63
2022-10-09T08:01:12.403Z,5.53
2022-10-09T08:03:41.187Z,6.53
2022-10-09T08:06:08.297Z,5.97
2022-10-09T08:08:35.341Z,6.30
2022-10-09T08:11:08.848Z,6.05
2022-10-09T08:13:36.192Z,6.50
2022-10-09T08:16:03.374Z,5.90
2022-10-09T08:18:30.337Z,5.40
2022-10-09T08:21:06.346Z,5.18
2022-10-09T08:23:33.948Z,5.18
2022-10-09T08:26:01.214Z,5.47
2022-10-09T08:28:28.087Z,4.55
2022-10-09T08:30:55.054Z,4.22
2022-10-09T08:33:23.470Z,4.13
2022-10-09T08:35:51.263Z,4.07
2022-10-09T08:38:44.933Z,3.35
2022-10-09T08:41:10.181Z,3.28
2022-10-09T08:43:41.406Z,3.38
2022-10-09T08:46:20.938Z,3.10
2022-10-09T08:48:49.267Z,3.58
2022-10-09T08:51:36.547Z,4.55
2022-10-09T08:54:34.912Z,5.18
2022-10-09T08:57:04.575Z,4.05
2022-10-09T08:59:31.649Z,4.40
2022-10-09T09:02:24.385Z,4.28
2022-10-09T09:05:22.349Z,3.95
2022-10-09T09:08:10.023Z,3.38
2022-10-09T09:10:57.365Z,3.28
2022-10-09T09:13:35.721Z,2.80
2022-10-09T09:16:59.115Z,2.70
2022-10-09T09:19:41.066Z,2.75
2022-10-09T09:22:12.508Z,3.25
2022-10-09T09:24:56.578Z,3.40
2022-10-09T09:27:30.670Z,3.40
2022-10-09T09:30:16.907Z,3.63
2022-10-09T09:33:09.701Z,4.18
2022-10-09T09:35:49.519Z,4.35
2022-10-09T09:38:16.596Z,4.10
2022-10-09T09:40:47.316Z,3.80
2022-10-09T09:43:23.826Z,4.38
2022-10-09T09:45:57.723Z,4.20
2022-10-09T09:48:39.530Z,4.00
2022-10-09T09:51:30.490Z,4.47
2022-10-09T09:54:04.280Z,4.53
2022-10-09T09:57:10.244Z,4.95
2022-10-09T09:59:38.895Z,3.90
2022-10-09T10:02:06.017Z,3.70
2022-10-09T10:04:33.031Z,3.97
2022-10-09T10:07:00.809Z,3.80
2022-10-09T10:09:27.822Z,3.42
2022-10-09T10:11:58.160Z,3.90
2022-10-09T10:14:25.264Z,3.50
2022-10-09T10:16:54.650Z,3.78
2022-10-09T10:19:24.233Z,3.58
2022-10-09T10:22:06.974Z,3.75
2022-10-09T10:24:42.711Z,3.55
2022-10-09T10:27:33.438Z,3.38
2022-10-09T10:30:04.083Z,3.30
2022-10-09T10:32:34.889Z,3.10
2022-10-09T10:35:06.682Z,2.83
2022-10-09T10:37:41.942Z,2.60
2022-10-09T10:40:17.510Z,3.00
2022-10-09T10:42:59.252Z,2.90
2022-10-09T10:45:45.107Z,2.65
2022-10-09T10:48:16.181Z,1.85
2022-10-09T10:50:48.524Z,1.50
2022-10-09T10:53:36.979Z,2.15
2022-10-09T10:56:08.535Z,2.30
2022-10-09T10:58:57.887Z,1.80
2022-10-09T11:01:58.538Z,2.22
2022-10-09T11:05:00.656Z,1.88
2022-10-09T11:07:55.491Z,2.20
2022-10-09T11:10:31.448Z,1.80
2022-10-09T11:13:06.496Z,1.58
2022-10-09T11:15:43.072Z,1.83
2022-10-09T11:18:16.048Z,1.80
2022-10-09T11:20:47.992Z,1.70
2022-10-09T11:23:31.657Z,1.50
2022-10-09T11:26:13.660Z,1.70
2022-10-09T11:28:49.360Z,1.50
2022-10-09T11:31:20.326Z,1.90
2022-10-09T11:33:52.831Z,2.08
2022-10-09T11:36:33.253Z,1.83
2022-10-09T11:39:05.736Z,2.00
2022-10-09T11:41:35.074Z,2.08
2022-10-09T11:44:39.511Z,1.95
2022-10-09T11:47:17.673Z,2.03
2022-10-09T11:49:56.907Z,2.53
2022-10-09T11:52:41.823Z,2.40
2022-10-09T11:55:19.779Z,2.00
2022-10-09T11:57:47.143Z,2.00
2022-10-09T12:00:16.096Z,1.70
2022-10-09T12:02:44.035Z,1.70
2022-10-09T12:05:19.663Z,1.30
2022-10-09T12:07:46.856Z,1.80
2022-10-09T12:10:33.609Z,1.83
2022-10-09T12:13:06.210Z,2.72
2022-10-09T12:15:40.412Z,2.78
2022-10-09T12:18:31.584Z,1.50
2022-10-09T12:21:01.856Z,2.05
2022-10-09T12:23:33.160Z,1.70
2022-10-09T12:26:00.632Z,1.60
2022-10-09T12:28:36.720Z,1.40
2022-10-09T12:31:05.904Z,1.80
2022-10-09T12:33:46.773Z,2.08
2022-10-09T12:36:21.965Z,1.75
2022-10-09T12:38:48.903Z,1.98
2022-10-09T12:41:32.417Z,2.05
2022-10-09T12:43:59.470Z,1.92
2022-10-09T12:46:31.183Z,1.92
2022-10-09T12:48:58.719Z,1.98
2022-10-09T12:51:28.113Z,1.98
2022-10-09T12:53:55.899Z,1.35
2022-10-09T12:56:26.126Z,1.80
2022-10-09T12:58:53.470Z,1.65
2022-10-09T13:01:20.927Z,1.75
2022-10-09T13:04:03.558Z,2.00
2022-10-09T13:06:38.302Z,2.00
2022-10-09T13:09:07.522Z,2.15
2022-10-09T13:11:38.167Z,1.95
2022-10-09T13:14:05.311Z,1.92
2022-10-09T13:16:42.830Z,1.83
2022-10-09T13:19:30.622Z,1.90
2022-10-09T13:22:20.540Z,1.90
2022-10-09T13:24:50.579Z,1.83
2022-10-09T13:27:19.632Z,2.00
2022-10-09T13:29:47.989Z,1.80
2022-10-09T13:32:17.040Z,1.80
2022-10-09T13:34:44.204Z,1.80
2022-10-09T13:37:13.984Z,1.83
2022-10-09T13:39:41.364Z,1.83
2022-10-09T13:42:10.923Z,2.15
2022-10-09T13:44:37.733Z,1.75
2022-10-09T13:47:05.451Z,1.58
2022-10-09T13:49:32.279Z,1.73
2022-10-09T13:51:59.135Z,2.00
2022-10-09T13:54:26.322Z,2.00
2022-10-09T13:56:53.187Z,1.73
2022-10-09T13:59:20.059Z,1.60
2022-10-09T14:01:47.187Z,2.42
2022-10-09T14:04:14.084Z,2.20
2022-10-09T14:06:40.888Z,1.80
2022-10-09T14:09:08.001Z,2.05
2022-10-09T14:11:34.900Z,2.10
2022-10-09T14:14:02.134Z,1.90
2022-10-09T14:16:29.916Z,1.52
2022-10-09T14:19:01.713Z,4.15
2022-10-09T14:21:29.281Z,1.90
2022-10-09T14:23:58.509Z,1.83
2022-10-09T14:26:26.427Z,4.05
2022-10-09T14:28:54.325Z,1.88
2022-10-09T14:31:21.635Z,1.88
2022-10-09T14:33:48.678Z,2.08
2022-10-09T14:36:21.303Z,2.72
2022-10-09T14:38:49.006Z,2.83
2022-10-09T14:41:18.020Z,3.90
2022-10-09T14:43:46.132Z,4.70
2022-10-09T14:46:17.497Z,3.28
2022-10-09T14:48:45.668Z,6.93
2022-10-09T14:51:24.519Z,5.88
2022-10-09T14:53:51.791Z,3.20
2022-10-09T14:56:20.374Z,7.78
2022-10-09T14:58:47.746Z,4.28
2022-10-09T15:01:17.059Z,3.50
2022-10-09T15:03:44.125Z,2.38
2022-10-09T15:06:12.393Z,2.30
2022-10-09T15:08:41.757Z,2.50
2022-10-09T15:11:10.182Z,2.70
2022-10-09T15:13:37.501Z,3.47
2022-10-09T15:16:10.781Z,2.97
2022-10-09T15:18:37.746Z,3.47
2022-10-09T15:21:04.733Z,4.53
2022-10-09T15:23:32.092Z,5.30
2022-10-09T15:26:00.717Z,4.88
2022-10-09T15:28:27.837Z,2.78
2022-10-09T15:30:58.337Z,2.88
2022-10-09T15:33:25.738Z,2.67
2022-10-09T15:35:53.408Z,4.03
2022-10-09T15:38:23.164Z,4.82
2022-10-09T15:40:53.688Z,3.92
2022-10-09T15:43:22.080Z,5.05
2022-10-09T15:45:49.546Z,3.83
2022-10-09T15:48:21.385Z,3.75
2022-10-09T15:50:51.550Z,4.35
2022-10-09T15:53:20.263Z,5.28
2022-10-09T15:55:49.121Z,4.55
2022-10-09T15:58:17.491Z,4.20
2022-10-09T16:00:47.514Z,4.47
2022-10-09T16:03:15.972Z,5.63
2022-10-09T16:05:45.125Z,5.85
2022-10-09T16:08:12.640Z,4.43
2022-10-09T16:10:49.200Z,4.05
2022-10-09T16:13:16.800Z,6.40
2022-10-09T16:15:47.049Z,5.00
2022-10-09T16:18:15.330Z,4.15
2022-10-09T16:20:42.561Z,4.10
2022-10-09T16:23:10.126Z,32.28
2022-10-09T16:25:39.045Z,19.85
2022-10-09T16:28:07.670Z,10.77
2022-10-09T16:30:42.614Z,5.93
2022-10-09T16:33:12.640Z,9.23
2022-10-09T16:35:40.131Z,5.80
2022-10-09T16:38:07.203Z,6.18
2022-10-09T16:43:21.056Z,6.80
2022-10-09T16:45:47.932Z,5.40
2022-10-09T16:48:14.938Z,5.88
2022-10-09T16:50:42.399Z,5.00
2022-10-09T16:53:09.315Z,7.03
2022-10-09T16:55:37.379Z,5.93
2022-10-09T16:58:05.031Z,9.18
2022-10-09T17:00:32.040Z,6.05
2022-10-09T17:02:59.357Z,6.10
2022-10-09T17:05:26.292Z,5.65
2022-10-09T17:07:54.410Z,6.30
2022-10-09T17:10:21.312Z,6.40
2022-10-09T17:12:48.366Z,6.65
2022-10-09T17:15:15.201Z,6.45
2022-10-09T17:17:42.444Z,7.45
2022-10-09T17:20:09.435Z,6.47
2022-10-09T17:22:36.497Z,8.15
2022-10-09T17:25:03.545Z,8.85
2022-10-09T17:27:30.804Z,7.60
2022-10-09T17:29:57.637Z,8.25
2022-10-09T17:32:25.270Z,9.00
2022-10-09T17:34:52.364Z,7.72
2022-10-09T17:37:19.163Z,9.88
2022-10-09T17:39:51.117Z,11.48
2022-10-09T17:42:19.233Z,14.48
2022-10-09T17:44:45.996Z,12.35
2022-10-09T17:47:12.883Z,13.57
2022-10-09T17:49:39.935Z,13.90
2022-10-09T17:52:06.783Z,20.35
2022-10-09T17:54:33.698Z,16.40
2022-10-09T17:57:01.429Z,11.25
2022-10-09T17:59:28.387Z,10.57
2022-10-09T18:01:55.652Z,12.25
2022-10-09T18:04:22.737Z,14.10
2022-10-09T18:06:49.775Z,9.65
2022-10-09T18:09:16.674Z,12.75
2022-10-09T18:11:43.755Z,11.68
2022-10-09T18:14:10.782Z,11.88
2022-10-09T18:16:38.509Z,10.15
2022-10-09T18:19:12.378Z,10.85
2022-10-09T18:21:41.815Z,10.82
2022-10-09T18:24:09.642Z,10.73
2022-10-09T18:26:36.553Z,13.25
2022-10-09T18:29:03.815Z,13.90
2022-10-09T18:31:31.662Z,16.25
2022-10-09T18:33:59.411Z,18.20
2022-10-09T18:36:34.386Z,12.27
2022-10-09T18:39:07.292Z,16.70
2022-10-09T18:41:35.431Z,16.60
2022-10-09T18:44:03.014Z,13.35
2022-10-09T18:46:41.608Z,11.13
2022-10-09T18:49:09.954Z,10.25
2022-10-09T18:51:38.413Z,10.45
2022-10-09T18:54:06.852Z,8.18
2022-10-09T18:56:34.701Z,9.40
2022-10-09T18:59:04.632Z,11.27
2022-10-09T19:01:31.903Z,11.90
2022-10-09T19:03:58.900Z,12.60
2022-10-09T19:06:26.141Z,12.23
2022-10-09T19:08:57.628Z,11.98
2022-10-09T19:11:24.917Z,15.65
2022-10-09T19:13:51.657Z,13.40
2022-10-09T19:16:18.651Z,13.95
2022-10-09T19:18:45.552Z,15.40
2022-10-09T19:21:16.194Z,14.13
2022-10-09T19:23:44.016Z,15.20
2022-10-09T19:26:12.536Z,15.70
2022-10-09T19:28:39.760Z,16.13
2022-10-09T19:31:09.077Z,17.23
2022-10-09T19:33:38.718Z,22.63
2022-10-09T19:36:06.731Z,22.27
2022-10-09T19:38:33.591Z,17.50
2022-10-09T19:41:05.503Z,20.55
2022-10-09T19:43:33.143Z,18.13
2022-10-09T19:46:02.098Z,17.45
2022-10-09T19:48:28.955Z,16.13
2022-10-09T19:50:56.144Z,19.88
2022-10-09T19:53:22.952Z,14.00
2022-10-09T19:55:49.991Z,11.63
2022-10-09T19:58:17.950Z,12.07
2022-10-09T20:00:48.238Z,16.08
2022-10-09T20:03:15.316Z,13.23
2022-10-09T20:05:42.330Z,13.50
2022-10-09T20:08:10.051Z,13.43
2022-10-09T20:10:38.086Z,11.02
2022-10-09T20:13:05.952Z,23.52
2022-10-09T20:15:32.872Z,14.68
2022-10-09T20:18:00.046Z,13.63
2022-10-09T20:20:27.147Z,14.70
2022-10-09T20:22:54.387Z,17.88
2022-10-09T20:25:21.639Z,15.20
2022-10-09T20:27:48.516Z,15.80
2022-10-09T20:30:15.572Z,16.15
2022-10-09T20:32:42.420Z,18.63
2022-10-09T20:35:10.097Z,16.48
2022-10-09T20:37:36.956Z,14.75
2022-10-09T20:40:04.207Z,11.75
2022-10-09T20:42:31.167Z,11.57
2022-10-09T20:44:58.164Z,12.30
2022-10-09T20:47:25.070Z,12.23
2022-10-09T20:49:52.092Z,11.18
2022-10-09T20:52:18.966Z,10.40
2022-10-09T20:54:45.997Z,11.90
2022-10-09T20:57:12.751Z,10.15
2022-10-09T20:59:39.839Z,11.15
2022-10-09T21:02:06.634Z,11.80
2022-10-09T21:04:33.673Z,11.15
2022-10-09T21:07:00.490Z,11.77
2022-10-09T21:09:30.955Z,11.90
2022-10-09T21:12:00.107Z,12.50
2022-10-09T21:14:27.090Z,12.43
2022-10-09T21:16:53.876Z,11.77
2022-10-09T21:19:20.855Z,12.10
2022-10-09T21:21:50.978Z,12.43
2022-10-09T21:24:18.298Z,12.57
2022-10-09T21:26:47.236Z,12.02
2022-10-09T21:29:14.599Z,12.30
2022-10-09T21:31:42.396Z,12.43
2022-10-09T21:34:09.678Z,11.82
2022-10-09T21:37:08.888Z,11.95
2022-10-09T21:39:33.946Z,12.50
2022-10-09T21:42:00.806Z,12.25
2022-10-09T21:44:27.896Z,12.27
2022-10-09T21:46:54.687Z,11.85
2022-10-09T21:49:23.778Z,12.07
2022-10-09T21:51:50.730Z,12.18
2022-10-09T21:54:17.738Z,13.13
2022-10-09T21:56:44.578Z,12.18
2022-10-09T21:59:11.500Z,11.57
2022-10-09T22:01:38.574Z,12.60
2022-10-09T22:04:05.391Z,12.18
2022-10-09T22:06:32.193Z,12.57
2022-10-09T22:08:59.928Z,12.63
2022-10-09T22:11:26.720Z,12.05
2022-10-09T22:13:55.268Z,11.02
2022-10-09T22:16:22.295Z,12.00
2022-10-09T22:18:49.230Z,11.15
2022-10-09T22:21:16.869Z,10.77
2022-10-09T22:23:43.741Z,11.00
2022-10-09T22:26:13.614Z,11.05
2022-10-09T22:28:40.727Z,11.88
2022-10-09T22:31:11.325Z,11.98
2022-10-09T22:33:38.473Z,11.48
2022-10-09T22:36:07.151Z,10.23
2022-10-09T22:38:34.011Z,8.77
2022-10-09T22:41:06.159Z,9.07
2022-10-09T22:43:33.078Z,9.90
2022-10-09T22:46:00.107Z,10.40
2022-10-09T22:48:26.998Z,7.95
2022-10-09T22:50:53.825Z,8.50
2022-10-09T22:53:20.916Z,7.68
2022-10-09T22:55:47.733Z,9.38
2022-10-09T22:58:14.784Z,9.48
2022-10-09T23:00:41.691Z,9.85
2022-10-09T23:03:08.997Z,10.95
2022-10-09T23:05:35.997Z,10.45
2022-10-09T23:08:03.043Z,9.52
2022-10-09T23:10:29.802Z,8.23
2022-10-09T23:12:56.853Z,9.75
2022-10-09T23:15:23.801Z,10.73
2022-10-09T23:17:51.113Z,9.30
2022-10-09T23:20:18.058Z,8.95
2022-10-09T23:22:45.044Z,9.73
2022-10-09T23:25:11.867Z,9.98
2022-10-09T23:27:38.835Z,9.95
2022-10-09T23:30:06.098Z,10.02
2022-10-09T23:32:33.134Z,9.68
2022-10-09T23:34:59.933Z,7.78
2022-10-09T23:37:27.033Z,8.93
2022-10-09T23:39:53.814Z,10.63
2022-10-09T23:42:21.028Z,11.13
2022-10-09T23:44:47.780Z,11.40
2022-10-09T23:47:14.860Z,11.13
2022-10-09T23:49:41.650Z,11.60
2022-10-09T23:52:08.746Z,12.82
2022-10-09T23:54:35.510Z,12.75
2022-10-09T23:57:02.549Z,13.25
2022-10-09T23:59:29.310Z,12.65
